Time;durP1;ratioP1;P1;durP2;ratioP2;P2;SDS_P1;SDS_P2;PMS_P1;PMS_P2;Temp;Humidity;BMP_temperature;BMP_pressure;BME280_temperature;BME280_humidity;BME280_pressure;Samples;Min_cycle;Max_cycle;Signal;HPM_P1;HPM_P2
2021/01/25 00:01:40;;;;;;;5.63;2.97;;;3.40;84.30;;;;;;5108300;28;20082;-67
2021/01/25 00:04:07;;;;;;;5.78;3.13;;;3.60;84.10;;;;;;5107507;28;20764;-66
2021/01/25 00:06:33;;;;;;;5.43;3.25;;;3.80;84.30;;;;;;5111327;28;20460;-66
2021/01/25 00:09:00;;;;;;;6.20;3.53;;;3.70;84.10;;;;;;5105616;28;20134;-66
2021/01/25 00:11:26;;;;;;;9.63;3.13;;;3.70;84.00;;;;;;5098959;28;20542;-67
2021/01/25 00:13:52;;;;;;;6.32;3.33;;;3.70;85.00;;;;;;5108247;28;20071;-66
2021/01/25 00:16:19;;;;;;;7.43;3.22;;;3.80;85.00;;;;;;5105892;27;20100;-67
2021/01/25 00:18:46;;;;;;;7.20;2.65;;;3.70;85.00;;;;;;5109022;28;20592;-67
2021/01/25 00:21:12;;;;;;;6.38;3.28;;;3.50;85.20;;;;;;5107064;28;20071;-67
2021/01/25 00:23:39;;;;;;;5.53;3.00;;;3.30;86.20;;;;;;5099684;28;20142;-67
2021/01/25 00:26:05;;;;;;;4.10;2.38;;;3.50;87.10;;;;;;5112597;27;20083;-66
2021/01/25 00:28:31;;;;;;;8.90;3.40;;;3.20;87.00;;;;;;5091955;27;20052;-66
2021/01/25 00:30:57;;;;;;;5.55;2.80;;;3.50;87.60;;;;;;5094065;27;20660;-66
2021/01/25 00:33:25;;;;;;;5.40;3.10;;;3.50;86.90;;;;;;5090512;28;20536;-67
2021/01/25 00:35:51;;;;;;;5.18;2.63;;;3.30;87.80;;;;;;5095674;28;20554;-65
2021/01/25 00:38:18;;;;;;;5.55;3.15;;;3.50;88.70;;;;;;5091990;28;20573;-65
2021/01/25 00:40:45;;;;;;;5.85;2.95;;;3.80;89.30;;;;;;5094772;28;20450;-66
2021/01/25 00:43:12;;;;;;;6.97;3.55;;;3.60;89.30;;;;;;5092560;28;20079;-66
2021/01/25 00:45:39;;;;;;;6.85;3.63;;;3.40;89.20;;;;;;5096556;27;20044;-66
2021/01/25 00:48:06;;;;;;;8.30;3.58;;;3.30;90.10;;;;;;5093238;27;20072;-65
2021/01/25 00:50:32;;;;;;;8.75;3.67;;;3.40;90.20;;;;;;5097715;28;20075;-66
2021/01/25 00:52:58;;;;;;;6.07;3.42;;;3.70;90.10;;;;;;5102040;28;20113;-65
2021/01/25 00:55:25;;;;;;;6.78;3.20;;;3.40;90.20;;;;;;5092694;28;20075;-66
2021/01/25 00:57:51;;;;;;;5.93;2.70;;;3.20;90.30;;;;;;5092605;28;20059;-65
2021/01/25 01:00:18;;;;;;;7.47;3.17;;;3.10;90.30;;;;;;5094882;28;20071;-67
2021/01/25 01:02:45;;;;;;;7.15;3.00;;;3.20;90.40;;;;;;5091640;27;20076;-65
2021/01/25 01:05:12;;;;;;;5.65;3.17;;;3.00;90.40;;;;;;5096715;28;20076;-66
2021/01/25 01:07:38;;;;;;;7.85;3.63;;;3.20;90.80;;;;;;5092715;28;20128;-66
2021/01/25 01:10:06;;;;;;;8.85;3.17;;;3.30;90.80;;;;;;5094608;28;20142;-66
2021/01/25 01:12:33;;;;;;;5.65;2.83;;;3.00;90.90;;;;;;5090025;27;20080;-66
2021/01/25 01:15:00;;;;;;;6.28;3.10;;;3.00;91.10;;;;;;5092627;28;20799;-65
2021/01/25 01:17:26;;;;;;;6.00;3.28;;;3.20;91.60;;;;;;5099583;27;20089;-65
2021/01/25 01:19:53;;;;;;;4.32;3.00;;;3.20;92.10;;;;;;5107727;28;20071;-64
2021/01/25 01:22:19;;;;;;;4.95;2.72;;;2.90;92.10;;;;;;5106999;28;20494;-65
2021/01/25 01:24:45;;;;;;;6.10;2.55;;;2.80;92.50;;;;;;5110211;27;20043;-64
2021/01/25 01:27:12;;;;;;;6.43;3.20;;;2.80;92.70;;;;;;5110008;28;20409;-65
2021/01/25 01:29:38;;;;;;;3.28;2.22;;;2.90;93.20;;;;;;5109323;28;20076;-66
2021/01/25 01:32:05;;;;;;;4.53;2.85;;;3.00;92.90;;;;;;5102154;27;20076;-66
2021/01/25 01:34:32;;;;;;;4.80;3.10;;;2.90;93.00;;;;;;5105944;28;20065;-66
2021/01/25 01:36:59;;;;;;;5.07;2.83;;;2.80;93.60;;;;;;5113031;28;20123;-65
2021/01/25 01:39:25;;;;;;;5.75;3.20;;;2.70;93.80;;;;;;5110628;28;20048;-66
2021/01/25 01:41:51;;;;;;;5.40;3.53;;;3.00;94.10;;;;;;5107860;28;20129;-66
2021/01/25 01:44:17;;;;;;;6.40;3.20;;;2.90;94.00;;;;;;5112376;28;20055;-66
2021/01/25 01:46:44;;;;;;;7.60;3.28;;;2.80;93.90;;;;;;5107461;28;20431;-66
2021/01/25 01:49:11;;;;;;;6.07;3.53;;;3.00;94.10;;;;;;5103520;28;20380;-65
2021/01/25 01:51:38;;;;;;;7.72;3.10;;;3.20;94.00;;;;;;5111296;28;20084;-66
2021/01/25 01:54:06;;;;;;;6.90;3.63;;;3.00;93.80;;;;;;5108552;28;20101;-66
2021/01/25 01:56:34;;;;;;;5.95;3.70;;;2.90;93.70;;;;;;5099275;28;20469;-66
2021/01/25 01:59:00;;;;;;;6.13;3.50;;;3.00;94.00;;;;;;5109006;28;20043;-66
2021/01/25 02:01:26;;;;;;;4.63;3.08;;;3.00;93.90;;;;;;5109267;28;20047;-65
2021/01/25 02:03:54;;;;;;;5.75;3.38;;;3.00;93.80;;;;;;5111858;28;20051;-65
2021/01/25 02:06:22;;;;;;;6.38;3.63;;;3.10;94.00;;;;;;5107335;28;20071;-65
2021/01/25 02:08:49;;;;;;;8.20;3.40;;;2.80;94.10;;;;;;5104704;28;20449;-65
2021/01/25 02:11:17;;;;;;;5.55;3.13;;;3.00;94.20;;;;;;5110968;28;20120;-66
2021/01/25 02:13:45;;;;;;;5.53;3.03;;;3.00;94.00;;;;;;5107032;28;20086;-65
2021/01/25 02:16:12;;;;;;;8.75;4.13;;;3.10;93.40;;;;;;5106945;28;20131;-65
2021/01/25 02:18:38;;;;;;;7.25;4.05;;;2.90;93.50;;;;;;5110392;28;20067;-65
2021/01/25 02:21:10;;;;;;;5.63;3.72;;;3.00;93.70;;;;;;5104653;28;20509;-64
2021/01/25 02:23:51;;;;;;;8.38;3.88;;;3.20;93.40;;;;;;5108140;28;20389;-65
2021/01/25 02:26:17;;;;;;;7.50;3.72;;;3.10;93.60;;;;;;5110299;28;20540;-65
2021/01/25 02:28:44;;;;;;;6.43;3.70;;;3.20;93.50;;;;;;5105688;28;20491;-66
2021/01/25 02:31:11;;;;;;;7.50;3.70;;;3.30;93.40;;;;;;5105101;28;20090;-65
2021/01/25 02:33:52;;;;;;;6.00;3.63;;;3.30;93.30;;;;;;5106969;28;20129;-66
2021/01/25 02:36:20;;;;;;;7.28;4.10;;;3.20;93.10;;;;;;5105317;28;20131;-66
2021/01/25 02:38:50;;;;;;;8.13;3.80;;;3.10;93.50;;;;;;5110222;28;20108;-66
2021/01/25 02:41:21;;;;;;;6.90;3.75;;;3.40;93.40;;;;;;5109067;28;20448;-67
2021/01/25 02:43:49;;;;;;;6.85;3.90;;;3.40;93.10;;;;;;5104096;28;20090;-65
2021/01/25 02:46:16;;;;;;;7.25;3.78;;;3.40;93.00;;;;;;5100474;28;20094;-65
2021/01/25 02:48:42;;;;;;;6.20;3.65;;;3.20;93.20;;;;;;5106923;28;20098;-65
2021/01/25 02:51:09;;;;;;;6.32;3.70;;;3.40;93.70;;;;;;5106825;28;20083;-65
2021/01/25 02:53:35;;;;;;;8.57;4.35;;;3.30;93.80;;;;;;5104971;28;20471;-65
2021/01/25 02:56:01;;;;;;;8.30;4.10;;;3.50;93.60;;;;;;5103870;28;20047;-66
2021/01/25 02:58:28;;;;;;;11.55;4.10;;;3.30;94.20;;;;;;5111032;28;20058;-65
2021/01/25 03:00:56;;;;;;;6.68;3.88;;;3.10;93.80;;;;;;5104447;28;20093;-65
2021/01/25 03:03:23;;;;;;;8.00;4.45;;;3.20;93.60;;;;;;5108228;28;20067;-65
2021/01/25 03:05:50;;;;;;;10.68;4.40;;;3.20;93.90;;;;;;5112718;28;20051;-65
2021/01/25 03:08:16;;;;;;;6.72;4.28;;;3.30;93.70;;;;;;5109266;28;20474;-65
2021/01/25 03:10:47;;;;;;;8.18;3.92;;;3.40;93.50;;;;;;5106308;28;20043;-65
2021/01/25 03:13:13;;;;;;;;;;;3.50;93.10;;;;;;5111959;28;20435;-65
2021/01/25 03:15:40;;;;;;;9.48;4.65;;;3.50;93.40;;;;;;5105009;28;19920;-64
2021/01/25 03:18:07;;;;;;;6.78;3.60;;;3.60;93.50;;;;;;5106842;28;20553;-65
2021/01/25 03:20:33;;;;;;;8.45;4.32;;;3.70;93.70;;;;;;5104965;28;20097;-65
2021/01/25 03:22:59;;;;;;;7.78;4.30;;;3.30;93.50;;;;;;5107346;28;20126;-64
2021/01/25 03:25:26;;;;;;;7.57;3.83;;;3.50;93.80;;;;;;5103206;28;20134;-65
2021/01/25 03:27:52;;;;;;;7.38;3.75;;;3.30;93.10;;;;;;5105777;28;20056;-66
2021/01/25 03:30:19;;;;;;;10.48;4.00;;;3.20;93.00;;;;;;5108660;28;20040;-65
2021/01/25 03:32:45;;;;;;;6.35;3.72;;;3.10;93.20;;;;;;5103414;28;20075;-65
2021/01/25 03:35:12;;;;;;;8.80;3.97;;;3.50;93.30;;;;;;5107050;28;20051;-65
2021/01/25 03:37:41;;;;;;;5.95;3.58;;;3.10;93.30;;;;;;5095792;28;20586;-66
2021/01/25 03:40:08;;;;;;;7.53;3.83;;;3.30;93.30;;;;;;5111993;28;20078;-66
2021/01/25 03:42:35;;;;;;;8.05;4.07;;;3.10;93.30;;;;;;5105974;28;20093;-66
2021/01/25 03:45:03;;;;;;;6.10;3.75;;;3.30;93.30;;;;;;5109339;28;20132;-66
2021/01/25 03:47:31;;;;;;;6.93;3.50;;;3.00;93.30;;;;;;5109731;28;20458;-66
2021/01/25 03:49:58;;;;;;;6.72;3.70;;;3.00;93.30;;;;;;5105299;28;20054;-66
2021/01/25 03:52:25;;;;;;;5.13;3.53;;;3.00;93.30;;;;;;5111644;28;20078;-66
2021/01/25 03:54:53;;;;;;;6.10;3.85;;;3.10;93.10;;;;;;5108235;28;20063;-66
2021/01/25 03:57:19;;;;;;;8.80;3.95;;;3.20;92.80;;;;;;5108602;28;20133;-66
2021/01/25 03:59:46;;;;;;;6.55;3.47;;;3.00;92.80;;;;;;5096279;28;20047;-66
2021/01/25 04:02:13;;;;;;;5.50;3.40;;;3.20;93.10;;;;;;5103112;28;20142;-66
2021/01/25 04:04:41;;;;;;;7.22;3.78;;;3.10;93.00;;;;;;5104318;28;20502;-66
2021/01/25 04:07:10;;;;;;;6.07;3.50;;;3.10;93.40;;;;;;5111259;28;20108;-66
2021/01/25 04:09:38;;;;;;;6.60;3.55;;;3.00;93.50;;;;;;5105488;28;20142;-66
2021/01/25 04:12:05;;;;;;;7.93;4.28;;;3.00;93.60;;;;;;5111436;28;20067;-66
2021/01/25 04:14:32;;;;;;;8.45;3.40;;;3.10;93.50;;;;;;5112567;28;20048;-66
2021/01/25 04:16:58;;;;;;;7.97;4.15;;;3.00;93.10;;;;;;5104873;28;20152;-66
2021/01/25 04:19:25;;;;;;;7.97;4.20;;;3.20;93.50;;;;;;5115294;28;20051;-66
2021/01/25 04:21:51;;;;;;;6.55;3.50;;;3.40;93.40;;;;;;5111635;28;20070;-66
2021/01/25 04:24:17;;;;;;;8.60;3.75;;;3.50;93.20;;;;;;5107477;28;20134;-66
2021/01/25 04:26:44;;;;;;;10.00;3.70;;;3.10;92.30;;;;;;5114102;28;20051;-66
2021/01/25 04:29:11;;;;;;;8.68;3.30;;;3.00;92.70;;;;;;5109880;28;20083;-66
2021/01/25 04:31:38;;;;;;;8.55;4.00;;;3.20;92.90;;;;;;5105048;28;20102;-67
2021/01/25 04:34:05;;;;;;;8.68;3.63;;;3.10;93.20;;;;;;5112186;28;20055;-66
2021/01/25 04:36:32;;;;;;;13.35;4.13;;;3.20;92.70;;;;;;5112603;28;20462;-66
2021/01/25 04:38:59;;;;;;;6.55;3.67;;;3.10;92.80;;;;;;5109405;28;20040;-66
2021/01/25 04:41:28;;;;;;;9.45;3.45;;;3.10;92.50;;;;;;5110615;28;20044;-66
2021/01/25 04:43:55;;;;;;;6.93;3.53;;;2.80;92.00;;;;;;5110921;28;20437;-66
2021/01/25 04:46:22;;;;;;;7.97;3.45;;;3.00;92.30;;;;;;5113533;28;20076;-66
2021/01/25 04:48:49;;;;;;;6.13;3.65;;;2.90;92.30;;;;;;5106869;28;20051;-66
2021/01/25 04:51:16;;;;;;;6.78;3.88;;;2.80;92.50;;;;;;5113169;28;20120;-66
2021/01/25 04:53:44;;;;;;;6.47;3.72;;;2.90;92.70;;;;;;5109571;28;20052;-66
2021/01/25 04:56:11;;;;;;;11.02;4.20;;;2.90;92.70;;;;;;5103327;28;20130;-66
2021/01/25 04:58:38;;;;;;;8.93;3.78;;;2.70;93.00;;;;;;5111201;28;20467;-66
2021/01/25 05:01:05;;;;;;;8.57;4.00;;;2.80;93.00;;;;;;5109676;28;20472;-66
2021/01/25 05:03:31;;;;;;;7.70;4.13;;;2.80;93.20;;;;;;5111754;28;20134;-66
2021/01/25 05:05:58;;;;;;;7.68;3.90;;;2.90;93.60;;;;;;5108982;28;20046;-66
2021/01/25 05:08:24;;;;;;;7.82;4.15;;;3.10;93.60;;;;;;5107283;28;20066;-66
2021/01/25 05:10:50;;;;;;;10.40;4.20;;;3.00;94.10;;;;;;5110992;28;20083;-66
2021/01/25 05:13:21;;;;;;;7.53;4.30;;;3.00;93.80;;;;;;5112253;28;20386;-66
2021/01/25 05:15:50;;;;;;;5.57;4.05;;;2.70;93.80;;;;;;5107642;28;20092;-66
2021/01/25 05:18:21;;;;;;;8.70;4.07;;;2.60;94.30;;;;;;5111394;28;20126;-66
2021/01/25 05:20:51;;;;;;;6.65;3.97;;;3.20;94.80;;;;;;5102704;28;20079;-66
2021/01/25 05:23:18;;;;;;;7.40;4.13;;;2.80;94.20;;;;;;5106875;28;20072;-66
2021/01/25 05:25:44;;;;;;;10.27;4.18;;;2.80;94.30;;;;;;5109847;28;20440;-66
2021/01/25 05:28:15;;;;;;;7.35;4.30;;;2.90;94.30;;;;;;5112246;28;20155;-65
2021/01/25 05:30:41;;;;;;;8.25;4.28;;;3.10;94.30;;;;;;5100960;28;20074;-66
2021/01/25 05:33:07;;;;;;;10.50;4.88;;;3.00;94.60;;;;;;5112013;28;20075;-66
2021/01/25 05:35:35;;;;;;;8.23;4.95;;;3.00;94.90;;;;;;5110401;28;20443;-66
2021/01/25 05:38:05;;;;;;;9.85;5.00;;;2.80;95.30;;;;;;5108777;28;20078;-66
2021/01/25 05:40:33;;;;;;;9.70;5.13;;;2.60;96.60;;;;;;5112186;28;20083;-66
2021/01/25 05:43:00;;;;;;;11.00;5.18;;;2.90;97.20;;;;;;5109599;28;20116;-66
2021/01/25 05:45:30;;;;;;;9.18;5.00;;;2.60;97.40;;;;;;5110022;27;20073;-66
2021/01/25 05:47:59;;;;;;;10.87;5.17;;;2.80;98.30;;;;;;5112283;28;20070;-66
2021/01/25 05:50:40;;;;;;;7.47;4.60;;;2.50;98.80;;;;;;5105159;28;20135;-66
2021/01/25 05:53:11;;;;;;;11.02;5.22;;;2.60;99.60;;;;;;5106181;28;20048;-66
2021/01/25 05:55:39;;;;;;;9.43;5.32;;;2.70;99.90;;;;;;5108638;28;20047;-66
2021/01/25 05:58:07;;;;;;;9.10;5.18;;;2.60;99.90;;;;;;5105305;28;23575;-67
2021/01/25 06:00:34;;;;;;;15.27;5.63;;;2.70;99.90;;;;;;5107403;28;20124;-65
2021/01/25 06:03:02;;;;;;;11.05;6.00;;;2.60;99.90;;;;;;5110864;28;20112;-65
2021/01/25 06:05:35;;;;;;;9.27;5.68;;;2.80;99.90;;;;;;5102485;28;20086;-65
2021/01/25 06:08:13;;;;;;;10.57;5.63;;;2.60;99.90;;;;;;5108790;28;20082;-65
2021/01/25 06:11:14;;;;;;;12.52;5.53;;;2.50;99.90;;;;;;5107615;28;20067;-65
2021/01/25 06:13:56;;;;;;;12.65;6.07;;;3.00;99.90;;;;;;5093003;28;20108;-65
2021/01/25 06:16:27;;;;;;;23.25;10.07;;;2.60;99.90;;;;;;5102116;28;20131;-65
2021/01/25 06:19:14;;;;;;;10.75;5.97;;;2.50;99.90;;;;;;5111385;28;20042;-65
2021/01/25 06:21:41;;;;;;;11.85;5.70;;;2.60;99.90;;;;;;5106742;28;20046;-65
2021/01/25 06:24:09;;;;;;;9.90;5.82;;;2.90;99.90;;;;;;5108136;28;20071;-66
2021/01/25 06:26:36;;;;;;;12.90;6.78;;;2.80;99.90;;;;;;5105109;28;20103;-66
2021/01/25 06:29:07;;;;;;;12.02;6.47;;;2.70;99.90;;;;;;5103023;28;20142;-66
2021/01/25 06:31:41;;;;;;;11.68;5.85;;;2.70;99.90;;;;;;5101315;28;20368;-66
2021/01/25 06:34:10;;;;;;;14.52;6.53;;;2.70;99.90;;;;;;5108405;28;20071;-66
2021/01/25 06:36:39;;;;;;;13.15;7.47;;;2.60;99.90;;;;;;5100142;28;20043;-66
2021/01/25 06:39:07;;;;;;;14.25;7.00;;;3.00;99.90;;;;;;5106766;28;21007;-65
2021/01/25 06:41:41;;;;;;;11.82;6.65;;;3.00;99.90;;;;;;5106984;28;20082;-65
2021/01/25 06:44:09;;;;;;;15.43;6.80;;;2.90;99.90;;;;;;5108013;28;20056;-65
2021/01/25 06:46:39;;;;;;;14.27;8.25;;;2.90;99.90;;;;;;5111007;28;20139;-65
2021/01/25 06:49:10;;;;;;;15.45;7.60;;;2.70;99.90;;;;;;5106847;28;20129;-65
2021/01/25 06:51:42;;;;;;;14.20;7.68;;;2.70;99.90;;;;;;5108772;28;20072;-65
2021/01/25 06:54:11;;;;;;;16.60;8.50;;;2.80;99.90;;;;;;5105602;28;20072;-65
2021/01/25 06:57:04;;;;;;;16.13;8.15;;;2.60;99.90;;;;;;5102917;28;20112;-65
2021/01/25 06:59:30;;;;;;;13.57;7.45;;;2.80;99.90;;;;;;5100713;28;20529;-65
2021/01/25 07:01:58;;;;;;;17.73;9.15;;;2.80;99.90;;;;;;5111256;27;20467;-66
2021/01/25 07:04:29;;;;;;;15.88;8.15;;;2.80;99.90;;;;;;5106939;28;20071;-65
2021/01/25 07:06:56;;;;;;;15.38;9.30;;;3.10;99.90;;;;;;5109031;28;20097;-65
2021/01/25 07:09:28;;;;;;;14.95;8.23;;;3.10;99.90;;;;;;5107197;28;20471;-65
2021/01/25 07:12:01;;;;;;;12.98;7.55;;;3.00;99.90;;;;;;5105864;28;20434;-65
2021/01/25 07:14:29;;;;;;;18.60;7.63;;;3.10;99.90;;;;;;5108125;28;20455;-64
2021/01/25 07:16:57;;;;;;;15.32;7.80;;;2.90;99.90;;;;;;5109769;28;20078;-65
2021/01/25 07:19:24;;;;;;;13.60;8.25;;;3.20;99.90;;;;;;5104626;28;20135;-65
2021/01/25 07:21:52;;;;;;;16.55;8.23;;;2.80;99.90;;;;;;5108832;28;20047;-65
2021/01/25 07:24:22;;;;;;;15.10;8.32;;;2.90;99.90;;;;;;5104972;28;20044;-65
2021/01/25 07:26:52;;;;;;;13.88;7.78;;;2.90;99.90;;;;;;5104019;28;20079;-66
2021/01/25 07:29:20;;;;;;;14.52;7.95;;;3.10;99.90;;;;;;5104781;28;20048;-66
2021/01/25 07:31:47;;;;;;;18.98;8.65;;;3.00;99.90;;;;;;5106360;28;20562;-66
2021/01/25 07:34:14;;;;;;;17.20;8.07;;;3.50;99.90;;;;;;5106316;28;20069;-66
2021/01/25 07:36:41;;;;;;;14.77;8.43;;;3.30;99.90;;;;;;5109612;28;20075;-67
2021/01/25 07:39:09;;;;;;;15.65;8.27;;;2.80;99.90;;;;;;5102991;28;20043;-65
2021/01/25 07:41:36;;;;;;;14.27;7.65;;;3.10;99.90;;;;;;5098484;28;20078;-65
2021/01/25 07:44:05;;;;;;;15.13;8.30;;;3.00;99.90;;;;;;5106588;28;20104;-66
2021/01/25 07:46:32;;;;;;;18.85;8.70;;;2.80;99.90;;;;;;5108179;28;20142;-66
2021/01/25 07:48:58;;;;;;;16.50;8.90;;;2.80;99.90;;;;;;5113654;28;20080;-67
2021/01/25 07:51:29;;;;;;;14.85;8.45;;;2.90;99.90;;;;;;5110741;28;20082;-66
2021/01/25 07:53:56;;;;;;;27.88;12.55;;;3.00;99.90;;;;;;5111650;28;20464;-66
2021/01/25 07:56:25;;;;;;;50.05;18.70;;;2.70;99.90;;;;;;5112971;28;20425;-66
2021/01/25 07:59:09;;;;;;;19.35;10.23;;;2.60;99.90;;;;;;5109101;28;20486;-66
2021/01/25 08:01:53;;;;;;;22.88;10.07;;;3.00;99.90;;;;;;5105829;28;20043;-66
2021/01/25 08:04:23;;;;;;;32.40;12.80;;;3.10;99.90;;;;;;5115904;28;20050;-67
2021/01/25 08:06:53;;;;;;;19.40;10.40;;;3.30;99.90;;;;;;5109612;28;20468;-66
2021/01/25 08:09:21;;;;;;;25.05;8.52;;;3.00;99.90;;;;;;5110709;28;20055;-66
2021/01/25 08:11:49;;;;;;;20.75;8.80;;;3.50;99.90;;;;;;5106008;28;20048;-66
2021/01/25 08:14:45;;;;;;;17.98;8.98;;;3.30;99.90;;;;;;5107810;28;20043;-65
2021/01/25 08:17:21;;;;;;;16.40;8.32;;;3.20;99.90;;;;;;5104243;27;20079;-66
2021/01/25 08:20:21;;;;;;;20.38;9.73;;;3.20;99.90;;;;;;5113810;28;20123;-66
2021/01/25 08:23:11;;;;;;;21.70;9.15;;;3.20;99.90;;;;;;5107667;28;20071;-66
2021/01/25 08:25:38;;;;;;;17.75;9.50;;;3.20;99.90;;;;;;5108585;28;20709;-66
2021/01/25 08:28:18;;;;;;;16.33;8.70;;;3.40;99.90;;;;;;5112740;28;20574;-66
2021/01/25 08:30:48;;;;;;;16.17;9.10;;;3.20;99.90;;;;;;5107347;28;20059;-66
2021/01/25 08:33:30;;;;;;;16.75;9.10;;;3.30;99.90;;;;;;5102980;28;20169;-66
2021/01/25 08:36:28;;;;;;;17.25;8.73;;;3.20;99.90;;;;;;5110008;28;20051;-66
2021/01/25 08:38:55;;;;;;;16.02;8.80;;;3.00;99.90;;;;;;5112196;28;20075;-66
2021/01/25 08:41:28;;;;;;;21.00;8.52;;;3.30;99.90;;;;;;5105110;28;20048;-66
2021/01/25 08:43:57;;;;;;;16.08;9.00;;;3.50;99.90;;;;;;5110403;28;20073;-66
2021/01/25 08:46:33;;;;;;;18.67;9.67;;;3.30;99.90;;;;;;5106794;28;20047;-66
2021/01/25 08:49:13;;;;;;;19.95;8.95;;;3.50;99.90;;;;;;5107969;28;20292;-68
2021/01/25 08:51:40;;;;;;;21.23;9.25;;;3.50;99.90;;;;;;5110455;28;20080;-69
2021/01/25 08:54:23;;;;;;;25.15;11.77;;;3.40;99.90;;;;;;5107401;28;20077;-69
2021/01/25 08:56:49;;;;;;;21.73;9.63;;;3.60;99.90;;;;;;5101727;28;20050;-68
2021/01/25 08:59:31;;;;;;;15.95;8.88;;;3.60;99.90;;;;;;5110487;28;20210;-69
2021/01/25 09:02:15;;;;;;;20.95;9.77;;;3.50;99.90;;;;;;5108380;28;20127;-69
2021/01/25 09:04:41;;;;;;;18.88;9.32;;;3.50;99.90;;;;;;5102333;28;20101;-69
2021/01/25 09:07:14;;;;;;;21.25;9.77;;;3.60;99.90;;;;;;5112401;28;20047;-68
2021/01/25 09:09:41;;;;;;;22.17;10.48;;;3.50;99.90;;;;;;5107773;28;20059;-67
2021/01/25 09:12:08;;;;;;;20.20;9.30;;;3.30;99.90;;;;;;5109249;28;20134;-68
2021/01/25 09:14:34;;;;;;;18.05;9.90;;;3.50;99.90;;;;;;5113496;28;20051;-67
2021/01/25 09:17:01;;;;;;;17.08;9.60;;;3.30;99.90;;;;;;5108574;27;20131;-67
2021/01/25 09:19:27;;;;;;;23.85;10.27;;;3.30;99.90;;;;;;5110283;28;20135;-67
2021/01/25 09:21:53;;;;;;;18.58;9.50;;;3.30;99.90;;;;;;5111200;28;20063;-68
2021/01/25 09:24:20;;;;;;;16.55;8.75;;;3.70;99.90;;;;;;5109597;28;20449;-68
2021/01/25 09:26:46;;;;;;;12.43;7.30;;;3.50;99.90;;;;;;5111671;28;20461;-68
2021/01/25 09:29:12;;;;;;;14.40;7.70;;;4.00;99.90;;;;;;5107012;28;20140;-67
2021/01/25 09:31:39;;;;;;;11.75;7.60;;;3.60;99.90;;;;;;5103954;28;20075;-67
2021/01/25 09:34:05;;;;;;;13.70;7.78;;;3.80;99.90;;;;;;5110280;28;20051;-66
2021/01/25 09:36:33;;;;;;;14.68;8.80;;;4.10;99.90;;;;;;5105262;28;20116;-66
2021/01/25 09:39:08;;;;;;;15.43;7.88;;;3.80;99.90;;;;;;5107246;28;20530;-66
2021/01/25 09:41:35;;;;;;;19.00;10.38;;;4.10;99.90;;;;;;5110025;28;20066;-67
2021/01/25 09:44:03;;;;;;;14.82;8.30;;;4.00;99.90;;;;;;5104606;28;20116;-67
2021/01/25 09:46:29;;;;;;;14.23;7.95;;;3.80;99.90;;;;;;5101609;28;20126;-67
2021/01/25 09:48:56;;;;;;;15.98;8.05;;;3.80;99.90;;;;;;5101823;28;20052;-67
2021/01/25 09:51:22;;;;;;;16.15;9.23;;;3.70;99.90;;;;;;5103586;28;20072;-67
2021/01/25 09:53:49;;;;;;;17.45;9.88;;;3.90;99.90;;;;;;5103323;28;20088;-67
2021/01/25 09:56:15;;;;;;;17.15;8.25;;;3.70;99.90;;;;;;5103361;28;20130;-70
2021/01/25 09:58:41;;;;;;;19.75;9.85;;;3.80;99.90;;;;;;5097730;28;20113;-72
2021/01/25 10:01:07;;;;;;;17.52;8.77;;;3.40;99.90;;;;;;5101983;27;20071;-68
2021/01/25 10:03:34;;;;;;;18.55;9.40;;;3.70;99.90;;;;;;5100339;28;20495;-68
2021/01/25 10:06:01;;;;;;;16.45;9.07;;;3.60;99.90;;;;;;5103093;28;20170;-68
2021/01/25 10:08:27;;;;;;;16.15;9.23;;;3.70;99.90;;;;;;5102490;27;20048;-67
2021/01/25 10:10:53;;;;;;;18.52;9.88;;;4.00;99.90;;;;;;5098948;28;20047;-67
2021/01/25 10:13:20;;;;;;;16.08;8.70;;;4.00;99.90;;;;;;5111066;28;20086;-68
2021/01/25 10:15:46;;;;;;;18.15;10.30;;;3.70;99.90;;;;;;5106148;27;20452;-67
2021/01/25 10:18:13;;;;;;;21.75;11.00;;;3.50;99.90;;;;;;5099303;28;20090;-67
2021/01/25 10:20:42;;;;;;;20.63;10.65;;;3.80;99.90;;;;;;5112204;28;20115;-67
2021/01/25 10:23:09;;;;;;;20.80;11.27;;;4.00;99.90;;;;;;5102806;28;20376;-67
2021/01/25 10:25:35;;;;;;;19.85;10.15;;;3.90;99.90;;;;;;5107573;28;20082;-67
2021/01/25 10:28:02;;;;;;;22.17;10.68;;;3.70;99.90;;;;;;5100398;28;20545;-68
2021/01/25 10:30:28;;;;;;;22.38;11.88;;;3.80;99.90;;;;;;5106659;28;20138;-68
2021/01/25 10:32:55;;;;;;;25.02;13.05;;;4.00;99.90;;;;;;5110219;28;20467;-68
2021/01/25 10:35:21;;;;;;;23.45;11.80;;;3.80;99.90;;;;;;5104939;28;20055;-68
2021/01/25 10:37:48;;;;;;;22.17;11.25;;;3.70;99.90;;;;;;5097140;28;20078;-67
2021/01/25 10:40:15;;;;;;;25.23;11.98;;;3.70;99.90;;;;;;5106686;28;20159;-68
2021/01/25 10:42:44;;;;;;;35.55;14.73;;;3.70;99.90;;;;;;5107309;28;20070;-68
2021/01/25 10:45:11;;;;;;;23.63;11.73;;;3.80;99.90;;;;;;5106333;28;20067;-68
2021/01/25 10:47:38;;;;;;;21.15;11.50;;;3.70;99.90;;;;;;5104510;28;20139;-68
2021/01/25 10:50:07;;;;;;;21.95;10.98;;;3.70;99.90;;;;;;5106701;28;20043;-68
2021/01/25 10:52:41;;;;;;;23.30;10.60;;;3.90;99.90;;;;;;5095669;28;20052;-67
2021/01/25 10:55:08;;;;;;;16.42;10.10;;;3.70;99.90;;;;;;5103827;27;20162;-67
2021/01/25 10:57:35;;;;;;;20.65;11.10;;;3.70;99.90;;;;;;5097600;28;20096;-67
2021/01/25 11:00:05;;;;;;;17.67;9.73;;;3.80;99.90;;;;;;5099323;28;20127;-68
2021/01/25 11:02:31;;;;;;;18.83;10.27;;;3.70;99.90;;;;;;5103050;28;20477;-68
2021/01/25 11:04:58;;;;;;;17.13;9.52;;;3.70;99.90;;;;;;5101161;28;20051;-69
2021/01/25 11:07:24;;;;;;;17.67;9.90;;;3.70;99.90;;;;;;5101853;28;20509;-68
2021/01/25 11:09:50;;;;;;;21.40;11.07;;;3.70;99.90;;;;;;5098195;28;20487;-68
2021/01/25 11:12:17;;;;;;;18.33;9.82;;;3.60;99.90;;;;;;5093338;28;20059;-67
2021/01/25 11:14:43;;;;;;;20.75;10.32;;;4.00;99.90;;;;;;5102787;28;20134;-67
2021/01/25 11:17:12;;;;;;;19.90;10.95;;;3.80;99.90;;;;;;5093724;28;20074;-67
2021/01/25 11:19:38;;;;;;;19.65;10.75;;;3.70;99.90;;;;;;5107262;28;20553;-66
2021/01/25 11:22:04;;;;;;;19.83;10.55;;;3.70;99.90;;;;;;5101920;28;20135;-67
2021/01/25 11:24:31;;;;;;;17.98;10.18;;;4.10;99.90;;;;;;5106634;28;20813;-68
2021/01/25 11:26:59;;;;;;;22.27;11.00;;;3.90;99.90;;;;;;5100586;28;20116;-67
2021/01/25 11:29:29;;;;;;;22.05;11.50;;;4.00;99.90;;;;;;5095859;28;20522;-72
2021/01/25 11:32:00;;;;;;;19.30;10.55;;;4.00;99.90;;;;;;5103869;28;20151;-66
2021/01/25 11:34:27;;;;;;;23.90;11.57;;;3.90;99.90;;;;;;5105151;28;20422;-67
2021/01/25 11:36:55;;;;;;;20.20;11.02;;;3.90;99.90;;;;;;5097075;28;20178;-67
2021/01/25 11:39:23;;;;;;;21.73;10.50;;;3.90;99.90;;;;;;5106091;28;20075;-67
2021/01/25 11:41:49;;;;;;;20.70;10.55;;;3.80;99.90;;;;;;5102477;28;20139;-68
2021/01/25 11:44:16;;;;;;;22.10;12.32;;;3.80;99.90;;;;;;5105223;28;20067;-67
2021/01/25 11:46:43;;;;;;;22.52;11.75;;;3.90;99.90;;;;;;5102196;28;20048;-67
2021/01/25 11:49:10;;;;;;;19.90;10.70;;;4.10;99.90;;;;;;5101928;28;20770;-67
2021/01/25 11:51:36;;;;;;;20.52;10.02;;;4.10;99.90;;;;;;5102830;28;20475;-66
2021/01/25 11:54:02;;;;;;;19.25;10.02;;;3.90;99.90;;;;;;5100040;28;20487;-66
2021/01/25 11:56:29;;;;;;;17.45;9.88;;;3.70;99.90;;;;;;5100601;28;20123;-66
2021/01/25 11:58:55;;;;;;;23.52;10.25;;;4.00;99.90;;;;;;5102555;28;20495;-66
2021/01/25 12:01:22;;;;;;;19.05;10.23;;;3.90;99.90;;;;;;5098507;28;20503;-67
2021/01/25 12:03:48;;;;;;;23.45;10.13;;;4.10;99.90;;;;;;5100337;28;20482;-70
2021/01/25 12:06:15;;;;;;;19.23;10.18;;;4.20;99.90;;;;;;5102086;28;20130;-76
2021/01/25 12:08:41;;;;;;;16.83;10.00;;;4.20;99.90;;;;;;5098646;28;20052;-80
2021/01/25 12:11:07;;;;;;;15.57;8.98;;;4.10;99.90;;;;;;5096243;28;20052;-73
2021/01/25 12:13:34;;;;;;;20.17;9.75;;;4.10;99.90;;;;;;5101777;28;20082;-72
2021/01/25 12:16:00;;;;;;;14.73;8.35;;;4.20;99.90;;;;;;5098931;28;20074;-72
2021/01/25 12:18:27;;;;;;;19.52;8.13;;;4.10;99.90;;;;;;5100804;28;20764;-71
2021/01/25 12:20:56;;;;;;;17.95;8.98;;;4.20;99.90;;;;;;5101577;28;20447;-70
2021/01/25 12:23:23;;;;;;;16.17;8.35;;;4.20;99.90;;;;;;5098979;28;20139;-71
2021/01/25 12:25:50;;;;;;;15.18;8.25;;;4.10;99.90;;;;;;5099715;28;20467;-71
2021/01/25 12:28:17;;;;;;;14.60;7.93;;;4.20;99.90;;;;;;5102207;28;20150;-71
2021/01/25 12:30:43;;;;;;;19.08;8.88;;;4.00;99.90;;;;;;5102557;28;20134;-72
2021/01/25 12:33:09;;;;;;;23.92;12.85;;;4.30;99.90;;;;;;5101216;28;20176;-71
2021/01/25 12:35:36;;;;;;;18.30;8.90;;;4.00;99.90;;;;;;5104663;28;20184;-71
2021/01/25 12:38:04;;;;;;;17.65;9.05;;;4.10;99.90;;;;;;5100856;28;20430;-71
2021/01/25 12:40:30;;;;;;;15.20;8.15;;;4.10;99.90;;;;;;5103062;28;20548;-71
2021/01/25 12:42:56;;;;;;;18.20;8.88;;;4.10;99.90;;;;;;5106865;28;20048;-71
2021/01/25 12:45:25;;;;;;;16.77;8.85;;;4.30;99.90;;;;;;5102757;28;20144;-70
2021/01/25 12:47:51;;;;;;;16.85;8.23;;;4.00;99.90;;;;;;5098826;28;20051;-70
2021/01/25 12:50:18;;;;;;;16.02;8.93;;;4.20;99.90;;;;;;5109408;28;20047;-71
2021/01/25 12:52:45;;;;;;;18.30;8.88;;;4.20;99.90;;;;;;5110434;27;20191;-72
2021/01/25 12:55:12;;;;;;;15.63;9.27;;;4.20;99.90;;;;;;5100897;27;20110;-72
2021/01/25 12:57:41;;;;;;;15.05;8.55;;;4.20;99.90;;;;;;5109595;28;20071;-72